createdAt,value
2019-04-01T00:00:42.131Z,31.80
2019-04-01T00:05:47.712Z,25.93
2019-04-01T00:10:52.763Z,33.90
2019-04-01T00:15:57.582Z,32.20
2019-04-01T00:21:02.556Z,32.23
2019-04-01T00:26:07.377Z,46.10
2019-04-01T00:31:12.140Z,45.70
2019-04-01T00:36:17.090Z,49.87
2019-04-01T00:41:21.829Z,40.27
2019-04-01T00:46:27.162Z,35.33
2019-04-01T00:51:32.011Z,39.50
2019-04-01T00:56:36.977Z,27.73
2019-04-01T01:01:41.733Z,37.47
2019-04-01T01:06:46.767Z,29.37
2019-04-01T01:11:51.510Z,29.57
2019-04-01T01:16:56.162Z,31.67
2019-04-01T01:22:00.970Z,33.97
2019-04-01T01:27:06.044Z,34.30
2019-04-01T01:32:10.786Z,30.17
2019-04-01T01:37:15.528Z,30.30
2019-04-01T01:42:20.347Z,31.00
2019-04-01T01:47:25.092Z,27.20
2019-04-01T01:52:30.061Z,30.37
2019-04-01T01:57:35.109Z,31.03
2019-04-01T02:02:39.852Z,29.07
2019-04-01T02:07:44.903Z,30.23
2019-04-01T02:12:49.952Z,32.97
2019-04-01T02:17:55.002Z,27.10
2019-04-01T02:23:00.049Z,23.47
2019-04-01T02:28:04.792Z,29.07
2019-04-01T02:33:09.534Z,27.80
2019-04-01T02:38:14.283Z,22.13
2019-04-01T02:43:19.326Z,29.83
2019-04-01T02:48:24.068Z,33.93
2019-04-01T02:53:28.810Z,26.73
2019-04-01T02:58:33.860Z,22.53
2019-04-01T03:03:38.602Z,33.63
2019-04-01T03:08:43.652Z,47.27
2019-04-01T03:13:48.698Z,21.03
2019-04-01T03:18:53.452Z,28.33
2019-04-01T03:23:58.265Z,18.87
2019-04-01T03:29:03.004Z,19.93
2019-04-01T03:34:07.975Z,31.57
2019-04-01T03:39:13.946Z,48.63
2019-04-01T03:44:18.663Z,20.50
2019-04-01T03:49:24.024Z,52.50
2019-04-01T03:54:28.788Z,34.30
2019-04-01T03:59:33.606Z,62.07
2019-04-01T04:04:38.579Z,71.30
2019-04-01T04:09:43.320Z,38.33
2019-04-01T04:14:51.215Z,34.00
2019-04-01T04:19:54.647Z,31.83
2019-04-01T04:24:59.468Z,40.60
2019-04-01T04:30:06.592Z,45.47
2019-04-01T04:35:11.963Z,38.58
2019-04-01T04:40:16.790Z,77.40
2019-04-01T04:45:21.740Z,105.50
2019-04-01T04:50:26.479Z,108.03
2019-04-01T04:55:31.203Z,102.90
2019-04-01T05:00:35.962Z,154.50
2019-04-01T05:05:41.632Z,101.57
2019-04-01T05:10:46.675Z,68.17
2019-04-01T05:15:51.518Z,41.83
2019-04-01T05:20:58.616Z,43.77
2019-04-01T05:26:04.103Z,28.83
2019-04-01T05:31:14.374Z,19.97
2019-04-01T05:36:19.294Z,18.37
2019-04-01T05:41:24.343Z,25.32
2019-04-01T05:46:30.501Z,24.05
2019-04-01T05:51:37.288Z,39.70
2019-04-01T05:56:42.256Z,45.25
2019-04-01T06:01:48.743Z,44.10
2019-04-01T06:06:54.503Z,35.13
2019-04-01T06:11:59.553Z,30.50
2019-04-01T06:17:04.609Z,22.05
2019-04-01T06:22:09.651Z,25.77
2019-04-01T06:27:15.053Z,30.30
2019-04-01T06:32:20.367Z,19.57
2019-04-01T06:37:25.084Z,27.13
2019-04-01T06:42:29.929Z,21.95
2019-04-01T06:47:34.897Z,23.70
2019-04-01T06:52:39.923Z,22.00
2019-04-01T06:57:44.766Z,19.65
2019-04-01T07:02:49.757Z,23.18
2019-04-01T07:07:54.891Z,10.50
2019-04-01T07:12:59.713Z,14.05
2019-04-01T07:18:04.763Z,16.42
2019-04-01T07:23:09.939Z,22.22
2019-04-01T07:28:14.677Z,11.65
2019-04-01T07:33:19.398Z,6.67
2019-04-01T07:38:24.470Z,18.10
2019-04-01T07:43:30.524Z,7.55
2019-04-01T07:48:35.797Z,5.70
2019-04-01T07:53:40.620Z,4.40
2019-04-01T07:58:45.587Z,18.27
2019-04-01T08:03:51.565Z,4.87
2019-04-01T08:08:56.304Z,5.45
2019-04-01T08:14:01.358Z,9.28
2019-04-01T08:19:06.378Z,7.33
2019-04-01T08:24:11.452Z,7.03
2019-04-01T08:29:30.085Z,11.43
2019-04-01T08:34:27.090Z,1.47
2019-04-01T08:39:32.614Z,123.92
2019-04-01T08:44:37.463Z,1.85
2019-04-01T08:49:42.228Z,14.38
2019-04-01T08:54:46.942Z,2.60
2019-04-01T08:59:52.027Z,2.65
2019-04-01T09:04:57.553Z,1.70
2019-04-01T09:10:02.879Z,4.40
2019-04-01T09:15:08.086Z,4.65
2019-04-01T09:20:13.450Z,8.13
2019-04-01T09:25:18.158Z,3.87
2019-04-01T09:30:24.156Z,2.50
2019-04-01T09:35:29.217Z,1.55
2019-04-01T09:40:34.536Z,4.67
2019-04-01T09:45:39.617Z,10.55
2019-04-01T09:50:44.327Z,13.22
2019-04-01T09:55:50.617Z,9.25
2019-04-01T10:00:55.680Z,2.45
2019-04-01T10:06:00.807Z,4.33
2019-04-01T10:11:06.983Z,4.83
2019-04-01T10:16:12.056Z,2.20
2019-04-01T10:21:17.106Z,4.15
2019-04-01T10:26:22.163Z,3.08
2019-04-01T10:31:26.979Z,5.20
2019-04-01T10:36:31.950Z,6.83
2019-04-01T10:41:36.997Z,2.22
2019-04-01T10:46:41.918Z,3.80
2019-04-01T10:51:46.875Z,4.40
2019-04-01T10:56:51.638Z,28.65
2019-04-01T11:01:56.673Z,18.25
2019-04-01T11:07:01.681Z,1.10
2019-04-01T11:12:06.920Z,47.83
2019-04-01T11:17:11.731Z,3.20
2019-04-01T11:22:16.471Z,1.65
2019-04-01T11:27:21.211Z,4.20
2019-04-01T11:32:26.004Z,1.35
2019-04-01T11:37:31.028Z,10.28
2019-04-01T11:42:40.036Z,1.98
2019-04-01T11:47:42.674Z,10.95
2019-04-01T11:52:47.686Z,4.22
2019-04-01T11:57:52.488Z,21.25
2019-04-01T12:02:57.478Z,1.02
2019-04-01T12:08:02.528Z,5.78
2019-04-01T12:13:07.354Z,14.93
2019-04-01T12:18:12.324Z,5.17
2019-04-01T12:23:17.367Z,6.15
2019-04-01T12:28:22.109Z,2.50
2019-04-01T12:33:27.775Z,5.58
2019-04-01T12:38:32.520Z,2.95
2019-04-01T12:43:37.878Z,5.45
2019-04-01T12:48:42.613Z,2.45
2019-04-01T12:53:47.638Z,1.55
2019-04-01T12:58:52.482Z,1.02
2019-04-01T13:03:57.575Z,2.72
2019-04-01T13:09:02.390Z,3.92
2019-04-01T13:14:09.401Z,7.37
2019-04-01T13:19:15.910Z,9.73
2019-04-01T13:24:21.338Z,1.25
2019-04-01T13:29:26.390Z,22.07
2019-04-01T13:34:31.128Z,1.30
2019-04-01T13:39:35.846Z,1.20
2019-04-01T13:44:40.590Z,6.87
2019-04-01T13:49:45.366Z,14.05
2019-04-01T13:54:50.120Z,6.15
2019-04-01T13:59:54.846Z,1.60
2019-04-01T14:04:59.668Z,64.15
2019-04-01T14:10:07.124Z,1.40
2019-04-01T14:15:12.342Z,1.72
2019-04-01T14:20:18.111Z,1.30
2019-04-01T14:25:23.030Z,2.75
2019-04-01T14:30:27.910Z,1.92
2019-04-01T14:35:32.617Z,1.82
2019-04-01T14:40:37.365Z,2.60
2019-04-01T14:45:42.739Z,2.08
2019-04-01T14:50:47.484Z,2.25
2019-04-01T14:55:52.227Z,1.52
2019-04-01T15:00:57.273Z,2.08
2019-04-01T15:06:02.115Z,11.85
2019-04-01T15:11:06.859Z,2.45
2019-04-01T15:16:12.749Z,1.70
2019-04-01T15:21:17.789Z,3.62
2019-04-01T15:26:22.826Z,5.25
2019-04-01T15:31:27.573Z,1.57
2019-04-01T15:36:32.617Z,2.87
2019-04-01T15:41:37.370Z,3.22
2019-04-01T15:46:42.408Z,1.98
2019-04-01T15:51:47.467Z,32.00
2019-04-01T15:56:52.324Z,1.10
2019-04-01T16:01:57.321Z,2.70
2019-04-01T16:07:02.863Z,6.30
2019-04-01T16:12:07.963Z,2.15
2019-04-01T16:17:12.806Z,5.05
2019-04-01T16:22:18.683Z,2.70
2019-04-01T16:27:23.734Z,19.10
2019-04-01T16:32:29.367Z,150.35
2019-04-01T16:37:34.496Z,392.85
2019-04-01T16:42:39.792Z,411.70
2019-04-01T16:47:44.621Z,463.80
2019-04-01T16:52:49.561Z,212.20
2019-04-01T16:57:54.636Z,95.60
2019-04-01T17:02:59.682Z,78.52
2019-04-01T17:08:04.516Z,89.37
2019-04-01T17:13:09.253Z,74.60
2019-04-01T17:18:14.215Z,28.75
2019-04-01T17:23:18.958Z,22.30
2019-04-01T17:28:24.009Z,27.32
2019-04-01T17:33:29.066Z,256.82
2019-04-01T17:38:34.106Z,17.42
2019-04-01T17:43:39.768Z,10.18
2019-04-01T17:48:44.511Z,14.13
2019-04-01T17:53:50.836Z,10.05
2019-04-01T17:58:55.838Z,19.40
2019-04-01T18:04:02.290Z,51.40
2019-04-01T18:09:08.595Z,39.40
2019-04-01T18:14:13.762Z,10.10
2019-04-01T18:19:20.029Z,10.10
2019-04-01T18:24:25.078Z,75.55
2019-04-01T18:29:29.819Z,69.75
2019-04-01T18:34:34.537Z,34.30
2019-04-01T18:39:47.958Z,44.83
2019-04-01T18:44:47.429Z,26.37
2019-04-01T18:49:52.247Z,10.58
2019-04-01T18:54:56.993Z,11.48
2019-04-01T19:00:01.731Z,22.02
2019-04-01T19:05:06.904Z,12.18
2019-04-01T19:10:12.143Z,25.32
2019-04-01T19:15:17.112Z,12.98
2019-04-01T19:20:22.163Z,14.95
2019-04-01T19:25:27.206Z,13.40
2019-04-01T19:30:32.236Z,80.47
2019-04-01T19:35:37.174Z,14.93
2019-04-01T19:40:42.044Z,23.07
2019-04-01T19:45:50.650Z,32.17
2019-04-01T19:50:55.522Z,24.20
2019-04-01T19:56:00.571Z,20.67
2019-04-01T20:01:05.495Z,22.83
2019-04-01T20:06:10.345Z,23.93
2019-04-01T20:11:15.748Z,24.17
2019-04-01T20:16:20.859Z,24.67
2019-04-01T20:21:25.829Z,32.57
2019-04-01T20:26:30.878Z,34.13
2019-04-01T20:31:35.692Z,23.57
2019-04-01T20:36:40.640Z,30.67
2019-04-01T20:41:45.401Z,27.20
2019-04-01T20:46:50.145Z,25.87
2019-04-01T20:51:55.191Z,32.83
2019-04-01T20:57:00.010Z,56.13
2019-04-01T21:02:04.982Z,39.47
2019-04-01T21:07:10.129Z,29.47
2019-04-01T21:12:15.389Z,31.63
2019-04-01T21:17:20.436Z,33.10
2019-04-01T21:22:25.282Z,33.60
2019-04-01T21:27:30.228Z,30.57
2019-04-01T21:32:35.048Z,29.97
2019-04-01T21:37:40.035Z,25.37
2019-04-01T21:42:45.380Z,28.33
2019-04-01T21:47:50.194Z,25.37
2019-04-01T21:52:55.171Z,29.90
2019-04-01T21:57:59.914Z,22.87
2019-04-01T22:03:04.960Z,25.47
2019-04-01T22:08:10.942Z,25.33
2019-04-01T22:13:20.622Z,24.53
2019-04-01T22:18:25.617Z,23.60
2019-04-01T22:23:30.467Z,20.13
2019-04-01T22:28:35.427Z,22.37
2019-04-01T22:33:40.652Z,20.83
2019-04-01T22:38:45.508Z,24.90
2019-04-01T22:43:50.349Z,23.83
2019-04-01T22:48:55.232Z,24.93
2019-04-01T22:54:00.070Z,23.37
2019-04-01T22:59:04.800Z,23.97
2019-04-01T23:04:09.666Z,22.00
2019-04-01T23:09:14.602Z,20.00
2019-04-01T23:14:19.410Z,21.90
2019-04-01T23:19:24.392Z,21.40
2019-04-01T23:24:29.438Z,20.50
2019-04-01T23:29:34.483Z,22.73
2019-04-01T23:34:39.225Z,19.97
2019-04-01T23:39:43.948Z,23.30
2019-04-01T23:44:51.289Z,20.57
2019-04-01T23:49:57.443Z,21.70
2019-04-01T23:55:02.188Z,21.20
